Vail, AZ (85641)

12:35 PM MST on March 29, 2015 (GMT -0700)
Corona de Tucson | | Change Station
CLOSE
Current Station
Personal Weather Station
Location: Vail, AZ
Elevation: 3376 ft
Nearby Weather Stations

Elev 3376 ft 31.96 °N, 110.77 °W | Updated 7 seconds ago

Clear
Clear
88.9 °F
Feels Like 85 °F
N
3.1
Wind Variable Wind from WNW
Gusts 13.6 mph

Today
High -- | Low -- °F
--% Chance of Precip.
Yesterday
High -- | Low -- °F
Precip. -- in
6:15 AM 6:40 PM
Waxing Gibbous, 73% visible
Pressure 30.00 in
Visibility 10.0 miles
Clouds Clear
Heat Index 85 °F
Dew Point 25 °F
Humidity 10%
Rainfall 0.00 in
Snow Depth Not available.
UV 10 out of 12
Pollen 10.40 out of 12
Air Quality Not available.
Flu Activity Not available.
METAR KTUS 291853Z VRB04KT 10SM CLR 31/M06 A3012 RMK AO2 SLP158 T03111061

More Conditions Fewer Conditions

Pressure 30.00 in
Visibility 10.0 miles
Clouds Clear
Heat Index 85 °F
Dew Point 25 °F
Humidity 10%
Rainfall 0.00 in
Snow Depth Not available.
UV 10 out of 12
Pollen 10.40 out of 12
Air Quality Not available.
Flu Activity Not available.
METAR KTUS 291853Z VRB04KT 10SM CLR 31/M06 A3012 RMK AO2 SLP158 T03111061

More Conditions Fewer Conditions

10-Day Weather Forecast

Almanac

Astronomy

Mar. 29, 2015 Rise Set
Actual Time
Civil Twilight
Nautical Twilight
Astronomical Twilight
Moon
Length of Visible Light
Length of Day
Tomorrow will be .
, % of the Moon is Illuminated

Today's Extremes

State Highs State Lows

Community

WunderPhotos

Upload Photos

1,809,338 photos uploaded!

WunderBlogs® & News

Nearby

Air Quality

  Air Quality AQ Index Pollutant
Not available.

Snow Depth

Station Depth Elevation

Earthquake Activity

City Distance Mag. Time & Date
Minimum magnitude displayed is 2.5.

Coastal Water Temperatures

Place Temperature

Stations

Nearby Weather Stations

Station Location Temp. Windchill Dew Point Humidity Wind Precip. Elev Updated Type